Aeroporto :
LOGIN :

Iscrizione | Disclaimer

   EN    FR    IT 

 










Sommario :    VFR   VFR Marginale   IFR   IFR Intensivo   IFR Molto Intensivo
Visibilità : 
Base nubi : 
>= 8 km
>= 3000ft
5 / 8 km
1000 / 3000 ft
1500m / 5 km
500 / 1000 ft
800 / 1500m
200 / 500 ft
< 800m
< 200 ft
Simboli :   Temporali  Nebbia  Neve Forte  Precipitazioni Forti  Vento > 20 kt
SIGMETs :   Varie  Temporali  Ghiacco  Turbolenza  Onda orograficha  Ceneri Vulcaniche






- Altitudine del aeroporto : 3 ft
- Codice IATA : LWR


EHLW - Leuuwarden Air Base

ULTIMO METAR :
  • 141325Z AUTO 25019KT 220V280 9999 FEW039 OVC120 07/02 Q0986 BLU

METARs OBSOLETI :
  • 141255Z AUTO 25018KT 9999 FEW040 SCT044 BKN049 06/03 Q0985 REDZ BLU
  • 141231Z AUTO 26029G40KT 220V290 9999 +DZ FEW013 BKN025 BKN029 05/03 Q0985 BLU
  • 141225Z AUTO 25023KT 220V280 6000 -RA FEW025 SCT028 BKN033 06/03 Q0985 WHT
  • 141155Z AUTO 26020KT 9999 SCT028 BKN032 BKN037 07/03 Q0984 REDZ BLU
  • 141145Z AUTO 26025G35KT 220V280 9999 FEW017 BKN027 BKN036 06/03 Q0984 BLU
  • 141134Z AUTO 25024G35KT 4200 -UP FEW023 SCT038 BKN047 06/02 Q0984 GRN
  • 141125Z AUTO 26023KT 220V280 9999 FEW034 BKN050 BKN056 07/02 Q0984 BLU
  • 141055Z AUTO 25024G35KT 9999 FEW028 SCT040 06/03 Q0984 BLU
  • 141033Z AUTO 26023KT 230V300 9999 -RA FEW015CB SCT029 BKN033 06/03 Q0983 BLU

TAF TAF EHLW
Valido dal 14 a 10 ore il 14 a 22 ore UTC


140931Z 1410/1422 25020G35KT 9999 FEW020 SCT025 BKN035
TEMPO 1410/1418 26022G37KT FEW010 SCT018CB BKN020



MetMap, La meteo Aeronautica in un colpo d'occhio ! - Copyright ORBIFLY Dicembre 2007 - Disclaimer

ORBIFLY MET'MAP TEAM :

Programmazione e sviluppo : Alexandra Zaïnal
Concezione : Baudouin d'Aumeries
Aiuto per la programmazione : Marc-Olivier Méhu
Supporto tecnico e logistico : Manuel Goepfert
Aiuto per la traduzione : Arnaldo La Scala

Contatto : metmap@orbifly.com




FONTI E CREDITI :

   NOAA